Time;durP1;ratioP1;P1;durP2;ratioP2;P2;SDS_P1;SDS_P2;PMS_P1;PMS_P2;Temp;Humidity;BMP_temperature;BMP_pressure;BME280_temperature;BME280_humidity;BME280_pressure;Samples;Min_cycle;Max_cycle;Signal;HPM_P1;HPM_P2
2022/09/28 00:02:08;;;;;;;1.20;0.20;;;;;;;;;;5073975;28;20051;-80
2022/09/28 00:04:34;;;;;;;1.15;0.40;;;;;;;;;;5073743;28;20036;-79
2022/09/28 00:07:00;;;;;;;1.15;0.40;;;;;;;;;;5073848;28;20024;-80
2022/09/28 00:09:26;;;;;;;5.82;0.63;;;;;;;;;;5073364;28;20474;-80
2022/09/28 00:11:53;;;;;;;0.98;0.32;;;;;;;;;;5073795;28;20021;-79
2022/09/28 00:14:19;;;;;;;1.27;0.25;;;;;;;;;;5073547;28;20044;-79
2022/09/28 00:16:47;;;;;;;1.05;0.55;;;;;;;;;;5072515;28;20028;-79
2022/09/28 00:19:13;;;;;;;1.33;0.38;;;;;;;;;;5073658;28;20059;-80
2022/09/28 00:21:40;;;;;;;2.53;0.38;;;;;;;;;;5054861;28;20044;-79
2022/09/28 00:24:14;;;;;;;0.82;0.40;;;;;;;;;;5036908;28;20117;-79
2022/09/28 00:26:45;;;;;;;0.93;0.35;;;;;;;;;;5054844;28;20378;-76
2022/09/28 00:29:30;;;;;;;1.60;0.40;;;;;;;;;;5036883;28;20032;-79
2022/09/28 00:32:01;;;;;;;0.80;0.35;;;;;;;;;;5036591;28;20102;-81
2022/09/28 00:34:30;;;;;;;0.60;0.30;;;;;;;;;;5036683;28;20037;-76
2022/09/28 00:36:56;;;;;;;1.45;0.40;;;;;;;;;;5036561;28;20493;-80
2022/09/28 00:39:23;;;;;;;0.80;0.40;;;;;;;;;;5036596;28;20099;-79
2022/09/28 00:41:49;;;;;;;0.70;0.40;;;;;;;;;;5036538;28;20389;-79
2022/09/28 00:44:36;;;;;;;1.52;0.45;;;;;;;;;;5036328;28;20463;-79
2022/09/28 00:47:09;;;;;;;0.98;0.30;;;;;;;;;;5036345;28;20031;-77
2022/09/28 00:49:39;;;;;;;1.00;0.30;;;;;;;;;;5036445;28;20028;-77
2022/09/28 00:52:06;;;;;;;1.55;0.30;;;;;;;;;;5036375;28;20056;-79
2022/09/28 00:54:33;;;;;;;0.63;0.30;;;;;;;;;;5036052;28;20037;-80
2022/09/28 00:57:00;;;;;;;0.75;0.35;;;;;;;;;;5036209;28;20633;-80
2022/09/28 00:59:26;;;;;;;2.33;0.80;;;;;;;;;;5036177;28;20025;-79
2022/09/28 01:01:52;;;;;;;0.95;0.43;;;;;;;;;;5036133;28;20029;-77
2022/09/28 01:04:18;;;;;;;4.13;0.43;;;;;;;;;;5035933;28;20437;-77
2022/09/28 01:06:45;;;;;;;1.77;0.50;;;;;;;;;;5036080;28;20078;-79
2022/09/28 01:09:11;;;;;;;2.65;0.30;;;;;;;;;;5036080;28;20444;-77
2022/09/28 01:11:38;;;;;;;0.55;0.13;;;;;;;;;;5035973;28;20497;-78
2022/09/28 01:14:06;;;;;;;1.00;0.30;;;;;;;;;;5053726;28;20040;-78
2022/09/28 01:16:32;;;;;;;0.30;0.10;;;;;;;;;;5035818;28;20139;-79
2022/09/28 01:19:17;;;;;;;0.47;0.20;;;;;;;;;;5053805;28;20390;-77
2022/09/28 01:21:51;;;;;;;0.47;0.20;;;;;;;;;;5052253;28;20041;-79
2022/09/28 01:24:27;;;;;;;0.88;0.20;;;;;;;;;;5052346;28;20116;-77
2022/09/28 01:26:56;;;;;;;0.60;0.28;;;;;;;;;;5052158;28;20024;-77
2022/09/28 01:29:39;;;;;;;1.02;0.30;;;;;;;;;;5052498;28;20413;-78
2022/09/28 01:32:25;;;;;;;0.35;0.20;;;;;;;;;;5053247;28;20036;-78
2022/09/28 01:34:57;;;;;;;0.65;0.22;;;;;;;;;;5052017;28;20033;-79
2022/09/28 01:37:28;;;;;;;0.77;0.30;;;;;;;;;;5052085;28;20017;-79
2022/09/28 01:39:56;;;;;;;0.40;0.10;;;;;;;;;;5052081;28;20064;-79
2022/09/28 01:42:27;;;;;;;1.15;0.28;;;;;;;;;;5052150;28;20386;-78
2022/09/28 01:44:55;;;;;;;1.10;0.47;;;;;;;;;;5051853;28;20029;-79
2022/09/28 01:47:23;;;;;;;0.35;0.15;;;;;;;;;;5051996;28;20103;-79
2022/09/28 01:50:00;;;;;;;0.55;0.30;;;;;;;;;;5052015;28;20527;-79
2022/09/28 01:52:29;;;;;;;0.30;0.20;;;;;;;;;;5051967;28;20032;-78
2022/09/28 01:54:58;;;;;;;1.65;0.30;;;;;;;;;;5051892;28;20068;-77
2022/09/28 01:57:28;;;;;;;0.47;0.25;;;;;;;;;;5051852;28;20546;-79
2022/09/28 02:00:00;;;;;;;0.17;0.13;;;;;;;;;;5051660;28;20079;-78
2022/09/28 02:02:31;;;;;;;0.83;0.30;;;;;;;;;;5051886;28;20033;-77
2022/09/28 02:05:00;;;;;;;0.32;0.10;;;;;;;;;;5053052;28;20585;-78
2022/09/28 02:07:37;;;;;;;0.63;0.30;;;;;;;;;;5053123;28;20480;-79
2022/09/28 02:10:06;;;;;;;1.45;0.20;;;;;;;;;;5051744;28;20389;-77
2022/09/28 02:12:38;;;;;;;1.33;0.52;;;;;;;;;;5051473;28;20377;-79
2022/09/28 02:15:16;;;;;;;1.25;0.28;;;;;;;;;;5051689;28;20037;-79
2022/09/28 02:17:43;;;;;;;0.63;0.30;;;;;;;;;;5053049;28;20025;-78
2022/09/28 02:20:10;;;;;;;0.22;0.20;;;;;;;;;;5060135;28;20063;-76
2022/09/28 02:22:42;;;;;;;0.50;0.20;;;;;;;;;;5072956;28;20052;-77
2022/09/28 02:25:15;;;;;;;0.45;0.17;;;;;;;;;;5071491;28;20397;-76
2022/09/28 02:27:44;;;;;;;0.65;0.28;;;;;;;;;;5071802;28;20016;-77
2022/09/28 02:30:10;;;;;;;0.30;0.10;;;;;;;;;;5071688;28;20469;-76
2022/09/28 02:32:39;;;;;;;0.77;0.22;;;;;;;;;;5071613;28;20021;-79
2022/09/28 02:35:17;;;;;;;0.40;0.20;;;;;;;;;;5071581;28;20036;-78
2022/09/28 02:37:43;;;;;;;0.55;0.17;;;;;;;;;;5071424;28;20033;-79
2022/09/28 02:40:14;;;;;;;0.70;0.20;;;;;;;;;;5073530;28;20028;-76
2022/09/28 02:42:52;;;;;;;1.00;0.38;;;;;;;;;;5075643;28;20048;-76
2022/09/28 02:45:37;;;;;;;0.70;0.30;;;;;;;;;;5075347;28;20032;-77
2022/09/28 02:48:03;;;;;;;0.10;0.10;;;;;;;;;;5076564;28;20534;-77
2022/09/28 02:50:32;;;;;;;0.50;0.20;;;;;;;;;;5076577;28;20032;-76
2022/09/28 02:52:58;;;;;;;0.47;0.20;;;;;;;;;;5075171;28;20029;-79
2022/09/28 02:55:27;;;;;;;0.70;0.20;;;;;;;;;;5075365;28;20161;-79
2022/09/28 02:57:54;;;;;;;0.40;0.25;;;;;;;;;;5075063;28;20123;-80
2022/09/28 03:00:21;;;;;;;1.02;0.30;;;;;;;;;;5074970;28;20063;-80
2022/09/28 03:03:00;;;;;;;0.95;0.32;;;;;;;;;;5075048;28;20047;-78
2022/09/28 03:05:38;;;;;;;0.43;0.20;;;;;;;;;;5074908;28;20028;-78
2022/09/28 03:08:08;;;;;;;0.50;0.20;;;;;;;;;;5074956;28;20083;-80
2022/09/28 03:10:34;;;;;;;0.93;0.40;;;;;;;;;;5074738;28;20485;-80
2022/09/28 03:13:01;;;;;;;1.00;0.38;;;;;;;;;;5074744;28;20021;-77
2022/09/28 03:15:31;;;;;;;0.65;0.30;;;;;;;;;;5074739;28;20066;-80
2022/09/28 03:17:58;;;;;;;1.55;0.70;;;;;;;;;;5074885;28;20021;-80
2022/09/28 03:20:25;;;;;;;2.33;1.55;;;;;;;;;;5065140;28;20049;-78
2022/09/28 03:22:51;;;;;;;0.40;0.13;;;;;;;;;;5037841;28;20025;-80
2022/09/28 03:25:17;;;;;;;0.45;0.20;;;;;;;;;;5037931;28;20056;-79
2022/09/28 03:27:43;;;;;;;1.58;0.30;;;;;;;;;;5037863;28;20056;-77
2022/09/28 03:30:10;;;;;;;2.15;0.45;;;;;;;;;;5037937;28;20032;-76
2022/09/28 03:32:37;;;;;;;0.73;0.50;;;;;;;;;;5037735;28;20025;-77
2022/09/28 03:35:03;;;;;;;4.90;0.65;;;;;;;;;;5037786;28;20042;-79
2022/09/28 03:37:30;;;;;;;0.95;0.47;;;;;;;;;;5037560;28;20059;-77
2022/09/28 03:39:56;;;;;;;11.57;0.40;;;;;;;;;;5037635;28;20032;-79
2022/09/28 03:42:22;;;;;;;1.20;0.47;;;;;;;;;;5037709;28;20021;-80
2022/09/28 03:44:48;;;;;;;2.10;0.40;;;;;;;;;;5037504;28;20033;-80
2022/09/28 03:47:16;;;;;;;1.52;0.75;;;;;;;;;;5037759;28;20028;-78
2022/09/28 03:49:43;;;;;;;0.88;0.38;;;;;;;;;;5037553;28;20073;-78
2022/09/28 03:52:09;;;;;;;1.25;0.60;;;;;;;;;;5037438;28;20021;-77
2022/09/28 03:54:35;;;;;;;1.95;0.60;;;;;;;;;;5037085;28;20127;-79
2022/09/28 03:57:01;;;;;;;0.70;0.52;;;;;;;;;;5055309;28;20381;-80
2022/09/28 03:59:27;;;;;;;2.72;0.47;;;;;;;;;;5037370;28;20382;-78
2022/09/28 04:01:53;;;;;;;9.48;0.85;;;;;;;;;;5055167;28;20048;-78
2022/09/28 04:04:19;;;;;;;1.35;0.70;;;;;;;;;;5037009;28;20497;-79
2022/09/28 04:06:45;;;;;;;4.32;0.90;;;;;;;;;;5037278;28;20033;-76
2022/09/28 04:09:12;;;;;;;1.08;0.52;;;;;;;;;;5037214;28;20112;-76
2022/09/28 04:11:38;;;;;;;1.52;0.70;;;;;;;;;;5055052;28;20068;-77
2022/09/28 04:14:04;;;;;;;5.05;0.73;;;;;;;;;;5037015;28;20064;-76
2022/09/28 04:16:30;;;;;;;2.50;0.82;;;;;;;;;;5036793;28;20021;-76
2022/09/28 04:18:57;;;;;;;1.55;0.52;;;;;;;;;;5036967;28;20500;-76
2022/09/28 04:21:23;;;;;;;1.75;0.73;;;;;;;;;;5071195;28;20076;-76
2022/09/28 04:23:50;;;;;;;9.48;1.08;;;;;;;;;;5073424;28;20024;-76
2022/09/28 04:26:17;;;;;;;1.77;0.68;;;;;;;;;;5074323;28;20032;-77
2022/09/28 04:31:29;;;;;;;0.63;0.30;;;;;;;;;;5075009;28;20027;-77
2022/09/28 04:33:58;;;;;;;1.48;0.40;;;;;;;;;;5074279;28;20150;-76
2022/09/28 04:36:24;;;;;;;1.17;0.50;;;;;;;;;;5073107;28;20033;-77
2022/09/28 04:38:52;;;;;;;1.52;0.38;;;;;;;;;;5072760;28;20123;-76
2022/09/28 04:41:18;;;;;;;0.40;0.20;;;;;;;;;;5073064;28;20031;-77
2022/09/28 04:43:46;;;;;;;0.45;0.10;;;;;;;;;;5073118;28;20055;-79
2022/09/28 04:46:12;;;;;;;1.45;0.20;;;;;;;;;;5073100;28;20025;-76
2022/09/28 04:48:38;;;;;;;0.80;0.25;;;;;;;;;;5073007;28;20032;-79
2022/09/28 04:51:04;;;;;;;2.13;0.25;;;;;;;;;;5072708;28;20388;-76
2022/09/28 04:53:30;;;;;;;0.98;0.30;;;;;;;;;;5072848;28;20043;-77
2022/09/28 04:55:57;;;;;;;0.82;0.30;;;;;;;;;;5074100;28;20028;-76
2022/09/28 04:58:24;;;;;;;4.97;0.50;;;;;;;;;;5072654;28;20040;-77
2022/09/28 05:00:50;;;;;;;1.70;0.55;;;;;;;;;;5074010;28;20389;-79
2022/09/28 05:03:22;;;;;;;2.75;0.50;;;;;;;;;;5073323;28;20029;-76
2022/09/28 05:05:50;;;;;;;1.77;0.40;;;;;;;;;;5072109;28;20020;-77
2022/09/28 05:08:17;;;;;;;1.08;0.40;;;;;;;;;;5073525;28;20028;-80
2022/09/28 05:10:43;;;;;;;1.85;0.40;;;;;;;;;;5072435;28;20059;-76
2022/09/28 05:13:10;;;;;;;0.55;0.30;;;;;;;;;;5072288;28;20027;-75
2022/09/28 05:15:37;;;;;;;0.77;0.40;;;;;;;;;;5074967;28;20400;-74
2022/09/28 05:18:03;;;;;;;1.77;0.65;;;;;;;;;;5085082;28;20475;-74
2022/09/28 05:20:30;;;;;;;2.35;0.93;;;;;;;;;;5078285;28;20052;-76
2022/09/28 05:22:56;;;;;;;2.90;0.52;;;;;;;;;;5055787;28;20024;-78
2022/09/28 05:25:22;;;;;;;1.55;0.68;;;;;;;;;;5055620;28;20508;-76
2022/09/28 05:27:48;;;;;;;7.05;0.60;;;;;;;;;;5055663;28;20042;-76
2022/09/28 05:30:14;;;;;;;2.85;0.90;;;;;;;;;;5073609;28;20024;-77
2022/09/28 05:32:41;;;;;;;4.15;1.20;;;;;;;;;;5055456;28;20033;-77
2022/09/28 05:35:07;;;;;;;4.63;0.90;;;;;;;;;;5055374;28;20465;-76
2022/09/28 05:37:35;;;;;;;7.32;1.65;;;;;;;;;;5047644;28;20555;-75
2022/09/28 05:40:02;;;;;;;4.20;1.15;;;;;;;;;;5072385;28;20020;-75
2022/09/28 05:42:29;;;;;;;7.00;1.83;;;;;;;;;;5053922;28;20024;-75
2022/09/28 05:44:57;;;;;;;4.82;1.85;;;;;;;;;;5035037;28;20021;-76
2022/09/28 05:47:24;;;;;;;4.03;1.73;;;;;;;;;;5035264;28;20021;-76
2022/09/28 05:49:50;;;;;;;6.45;1.80;;;;;;;;;;5035317;28;20032;-77
2022/09/28 05:52:17;;;;;;;3.67;1.20;;;;;;;;;;5051470;28;20331;-76
2022/09/28 05:54:43;;;;;;;4.32;1.00;;;;;;;;;;5091496;28;20028;-76
2022/09/28 05:57:09;;;;;;;1.58;0.50;;;;;;;;;;5054815;28;20466;-76
2022/09/28 05:59:35;;;;;;;5.60;1.02;;;;;;;;;;5048081;28;20031;-76
2022/09/28 06:02:01;;;;;;;6.97;0.85;;;;;;;;;;5047678;28;20075;-76
2022/09/28 06:04:28;;;;;;;3.00;1.02;;;;;;;;;;5045902;28;20119;-76
2022/09/28 06:06:54;;;;;;;4.68;0.68;;;;;;;;;;5061878;28;20167;-77
2022/09/28 06:09:22;;;;;;;3.95;1.48;;;;;;;;;;5038925;28;20091;-76
2022/09/28 06:11:48;;;;;;;2.35;1.08;;;;;;;;;;5054294;28;20477;-76
2022/09/28 06:14:14;;;;;;;3.25;1.10;;;;;;;;;;5055338;28;20047;-75
2022/09/28 06:16:40;;;;;;;2.63;0.70;;;;;;;;;;5058851;28;20024;-76
2022/09/28 06:19:10;;;;;;;3.08;0.88;;;;;;;;;;5059102;28;20032;-76
2022/09/28 06:21:36;;;;;;;2.20;0.77;;;;;;;;;;5076918;28;20036;-76
2022/09/28 06:24:03;;;;;;;3.50;0.90;;;;;;;;;;5075563;28;20021;-76
2022/09/28 06:26:30;;;;;;;1.45;0.60;;;;;;;;;;5076669;28;20025;-76
2022/09/28 06:28:56;;;;;;;2.90;0.55;;;;;;;;;;5075306;28;20024;-76
2022/09/28 06:31:23;;;;;;;1.80;0.80;;;;;;;;;;5072856;28;20028;-75
2022/09/28 06:33:50;;;;;;;2.10;0.50;;;;;;;;;;5056595;28;20071;-75
2022/09/28 06:36:16;;;;;;;2.35;0.57;;;;;;;;;;5055221;28;20023;-75
2022/09/28 06:38:42;;;;;;;2.47;0.70;;;;;;;;;;5054594;28;20028;-76
2022/09/28 06:41:10;;;;;;;1.50;0.40;;;;;;;;;;5055332;28;20028;-75
2022/09/28 06:43:38;;;;;;;1.60;0.50;;;;;;;;;;5056473;28;20087;-75
2022/09/28 06:46:04;;;;;;;1.55;0.50;;;;;;;;;;5056298;28;20021;-75
2022/09/28 06:48:32;;;;;;;2.22;0.90;;;;;;;;;;5056027;28;20482;-75
2022/09/28 06:50:59;;;;;;;3.75;0.95;;;;;;;;;;5056507;28;20013;-76
2022/09/28 06:53:26;;;;;;;2.22;0.80;;;;;;;;;;5072249;28;20086;-76
2022/09/28 06:55:52;;;;;;;1.60;0.70;;;;;;;;;;5076251;28;20480;-76
2022/09/28 06:58:19;;;;;;;2.03;0.70;;;;;;;;;;5074598;28;20025;-75
2022/09/28 07:00:46;;;;;;;1.83;0.70;;;;;;;;;;5074772;28;20111;-75
2022/09/28 07:03:13;;;;;;;2.85;0.70;;;;;;;;;;5076006;28;20030;-76
2022/09/28 07:05:46;;;;;;;5.97;0.60;;;;;;;;;;5074880;28;20028;-76
2022/09/28 07:08:12;;;;;;;2.28;0.70;;;;;;;;;;5074462;28;20025;-81
2022/09/28 07:10:46;;;;;;;1.55;0.70;;;;;;;;;;5074652;28;20062;-75
2022/09/28 07:13:13;;;;;;;1.15;0.63;;;;;;;;;;5075751;28;20444;-76
2022/09/28 07:15:39;;;;;;;1.48;0.65;;;;;;;;;;5074847;28;20780;-76
2022/09/28 07:18:06;;;;;;;2.03;0.68;;;;;;;;;;5074037;28;20362;-75
2022/09/28 07:20:44;;;;;;;6.97;0.65;;;;;;;;;;5088105;28;20036;-93
2022/09/28 07:23:10;;;;;;;3.75;0.90;;;;;;;;;;5089512;28;20508;-92
2022/09/28 07:25:43;;;;;;;3.92;0.60;;;;;;;;;;5078046;28;20112;-90
2022/09/28 07:28:09;;;;;;;1.35;0.43;;;;;;;;;;5078031;28;20071;-91
2022/09/28 07:30:39;;;;;;;2.47;0.40;;;;;;;;;;5077731;28;20032;-88
2022/09/28 07:33:06;;;;;;;5.43;0.50;;;;;;;;;;5079766;28;20032;-88
2022/09/28 07:35:35;;;;;;;0.90;0.40;;;;;;;;;;5076771;28;20035;-90
2022/09/28 07:38:02;;;;;;;1.13;0.40;;;;;;;;;;5076666;28;20358;-89
2022/09/28 07:43:15;;;;;;;1.27;0.60;;;;;;;;;;5078388;28;20047;-88
2022/09/28 07:45:43;;;;;;;1.30;0.57;;;;;;;;;;5076516;28;20024;-90
2022/09/28 07:48:09;;;;;;;2.08;0.98;;;;;;;;;;5076956;28;20032;-89
2022/09/28 07:50:35;;;;;;;2.17;0.80;;;;;;;;;;5076348;28;20025;-90
2022/09/28 07:53:02;;;;;;;3.35;0.90;;;;;;;;;;5083998;28;20021;-89
2022/09/28 07:55:32;;;;;;;2.10;1.00;;;;;;;;;;5079997;28;20066;-88
2022/09/28 07:58:19;;;;;;;1.98;0.95;;;;;;;;;;5030566;28;20384;-89
2022/09/28 08:03:37;;;;;;;2.30;1.20;;;;;;;;;;5109697;28;20067;-88
2022/09/28 08:06:09;;;;;;;2.45;1.00;;;;;;;;;;5107320;28;20036;-88
2022/09/28 08:08:43;;;;;;;2.40;1.05;;;;;;;;;;5110004;28;20047;-88
2022/09/28 08:11:18;;;;;;;2.17;1.08;;;;;;;;;;5109539;28;20043;-89
2022/09/28 08:13:54;;;;;;;3.42;1.00;;;;;;;;;;5104449;28;20069;-89
2022/09/28 08:16:20;;;;;;;2.13;1.00;;;;;;;;;;5105274;28;20047;-88
2022/09/28 08:18:48;;;;;;;2.47;1.10;;;;;;;;;;5102027;28;20088;-88
2022/09/28 08:23:59;;;;;;;3.22;1.75;;;;;;;;;;5098367;28;20039;-89
2022/09/28 08:26:25;;;;;;;4.60;2.42;;;;;;;;;;5097790;28;20024;-86
2022/09/28 08:28:51;;;;;;;3.85;2.33;;;;;;;;;;5096185;28;20102;-88
2022/09/28 08:31:18;;;;;;;4.70;3.05;;;;;;;;;;5098355;28;20020;-92
2022/09/28 08:34:19;;;;;;;5.07;3.63;;;;;;;;;;5100131;28;20047;-88
2022/09/28 08:37:11;;;;;;;5.82;4.05;;;;;;;;;;5100690;28;20111;-93
2022/09/28 08:39:37;;;;;;;7.65;4.57;;;;;;;;;;5101473;28;20052;-86
2022/09/28 08:42:23;;;;;;;8.50;4.35;;;;;;;;;;5102264;28;20024;-86
2022/09/28 08:44:56;;;;;;;5.53;3.95;;;;;;;;;;5104373;28;20038;-86
2022/09/28 08:50:42;;;;;;;5.38;3.22;;;;;;;;;;5037226;28;20396;-85
2022/09/28 08:53:38;;;;;;;6.45;3.38;;;;;;;;;;5102945;28;20049;-86
2022/09/28 08:56:10;;;;;;;6.47;3.30;;;;;;;;;;5085197;28;20103;-89
2022/09/28 08:58:42;;;;;;;5.70;3.55;;;;;;;;;;5107045;28;20036;-84
2022/09/28 09:01:15;;;;;;;4.82;3.35;;;;;;;;;;5101704;28;20115;-88
2022/09/28 09:03:44;;;;;;;4.43;3.00;;;;;;;;;;5097085;28;20020;-85
2022/09/28 09:06:16;;;;;;;4.60;2.85;;;;;;;;;;5077336;28;20082;-85
2022/09/28 09:09:01;;;;;;;4.35;2.70;;;;;;;;;;5080719;28;20028;-86
2022/09/28 09:11:37;;;;;;;4.43;3.03;;;;;;;;;;5089964;28;20036;-86
2022/09/28 09:14:26;;;;;;;5.32;3.13;;;;;;;;;;5083816;28;20123;-85
2022/09/28 09:17:06;;;;;;;4.28;2.67;;;;;;;;;;5091619;28;20035;-85
2022/09/28 09:19:51;;;;;;;3.45;2.17;;;;;;;;;;5093453;28;20492;-87
2022/09/28 09:22:26;;;;;;;7.13;2.50;;;;;;;;;;5094187;28;20035;-86
2022/09/28 09:25:22;;;;;;;3.28;1.70;;;;;;;;;;5094022;28;20115;-86
2022/09/28 09:28:10;;;;;;;3.28;1.60;;;;;;;;;;5057292;28;20047;-86
2022/09/28 09:30:45;;;;;;;3.13;1.80;;;;;;;;;;5073904;28;20084;-86
2022/09/28 09:33:30;;;;;;;3.03;1.55;;;;;;;;;;5073637;28;20050;-87
2022/09/28 09:35:57;;;;;;;2.40;1.38;;;;;;;;;;5073699;28;20599;-87
2022/09/28 09:38:29;;;;;;;3.08;1.48;;;;;;;;;;5073361;28;20473;-86
2022/09/28 09:41:06;;;;;;;3.72;1.63;;;;;;;;;;5073128;28;20017;-86
2022/09/28 09:43:35;;;;;;;3.80;1.55;;;;;;;;;;5072553;28;20067;-86
2022/09/28 09:46:11;;;;;;;2.67;1.50;;;;;;;;;;5072582;28;20508;-85
2022/09/28 09:48:49;;;;;;;2.72;1.52;;;;;;;;;;5073624;28;20047;-86
2022/09/28 09:51:25;;;;;;;2.80;1.70;;;;;;;;;;5074109;28;20032;-85
2022/09/28 09:53:58;;;;;;;2.05;1.30;;;;;;;;;;5073009;28;20029;-87
2022/09/28 09:56:33;;;;;;;2.35;1.40;;;;;;;;;;5073635;28;20481;-88
2022/09/28 09:59:03;;;;;;;1.70;0.98;;;;;;;;;;5074353;28;20731;-86
2022/09/28 10:01:35;;;;;;;1.95;1.08;;;;;;;;;;5074052;28;20024;-85
2022/09/28 10:04:02;;;;;;;1.35;0.80;;;;;;;;;;5073422;28;20025;-86
2022/09/28 10:06:33;;;;;;;3.17;1.10;;;;;;;;;;5073482;28;20032;-86
2022/09/28 10:09:06;;;;;;;1.43;0.73;;;;;;;;;;5074382;28;20020;-86
2022/09/28 10:11:35;;;;;;;;;;;;;;;;;;5075728;28;20060;-87
2022/09/28 10:14:01;;;;;;;0.65;0.30;;;;;;;;;;5074064;28;20262;-86
2022/09/28 10:16:27;;;;;;;5.68;0.50;;;;;;;;;;5084811;28;20073;-86
2022/09/28 10:18:53;;;;;;;0.57;0.30;;;;;;;;;;5090580;28;20135;-86
2022/09/28 10:21:23;;;;;;;0.77;0.20;;;;;;;;;;5059382;28;20113;-88
2022/09/28 10:23:59;;;;;;;0.52;0.20;;;;;;;;;;5037111;28;20025;-87
2022/09/28 10:26:29;;;;;;;4.63;0.50;;;;;;;;;;5036876;28;20139;-87
2022/09/28 10:28:57;;;;;;;0.40;0.10;;;;;;;;;;5036778;28;20051;-85
2022/09/28 10:31:38;;;;;;;0.70;0.22;;;;;;;;;;5054089;28;20024;-86
2022/09/28 10:34:06;;;;;;;0.40;0.20;;;;;;;;;;5055833;28;20040;-85
2022/09/28 10:36:37;;;;;;;1.42;0.30;;;;;;;;;;5056811;28;20056;-86
2022/09/28 10:39:06;;;;;;;0.73;0.35;;;;;;;;;;5074746;28;20432;-86
2022/09/28 10:41:33;;;;;;;3.15;0.55;;;;;;;;;;5057598;28;20074;-85
2022/09/28 10:44:05;;;;;;;0.52;0.20;;;;;;;;;;5056497;28;20115;-85
2022/09/28 10:46:32;;;;;;;0.88;0.45;;;;;;;;;;5056049;28;20056;-87
2022/09/28 10:49:01;;;;;;;2.20;0.32;;;;;;;;;;5056365;28;20024;-86
2022/09/28 10:51:59;;;;;;;1.23;0.35;;;;;;;;;;5064604;28;20034;-85
2022/09/28 10:54:27;;;;;;;2.40;0.40;;;;;;;;;;5022380;28;20062;-87
2022/09/28 10:57:05;;;;;;;0.85;0.22;;;;;;;;;;5076722;28;20040;-85
2022/09/28 10:59:39;;;;;;;1.13;0.25;;;;;;;;;;5076095;28;20024;-84
2022/09/28 11:02:41;;;;;;;1.27;0.30;;;;;;;;;;5079219;28;20028;-85
2022/09/28 11:05:07;;;;;;;1.08;0.50;;;;;;;;;;4996231;28;20101;-85
2022/09/28 11:07:44;;;;;;;1.60;0.35;;;;;;;;;;5060148;28;20042;-85
2022/09/28 11:10:19;;;;;;;1.02;0.28;;;;;;;;;;5080641;28;20469;-86
2022/09/28 11:12:46;;;;;;;0.65;0.20;;;;;;;;;;5080822;28;20024;-83
2022/09/28 11:15:20;;;;;;;0.90;0.20;;;;;;;;;;5079920;28;20488;-85
2022/09/28 11:17:46;;;;;;;0.60;0.30;;;;;;;;;;5080684;28;20035;-86
2022/09/28 11:20:25;;;;;;;1.13;0.38;;;;;;;;;;5089660;28;20093;-84
2022/09/28 11:23:16;;;;;;;1.05;0.32;;;;;;;;;;5117156;28;20585;-86
2022/09/28 11:25:43;;;;;;;1.35;0.45;;;;;;;;;;5118003;28;20020;-85
2022/09/28 11:28:22;;;;;;;1.23;0.43;;;;;;;;;;5116665;28;20056;-85
2022/09/28 11:30:48;;;;;;;2.35;0.38;;;;;;;;;;5117652;28;20396;-84
2022/09/28 11:33:19;;;;;;;1.85;0.38;;;;;;;;;;5117080;28;20034;-85
2022/09/28 11:36:03;;;;;;;2.33;0.30;;;;;;;;;;5123382;28;20398;-86
2022/09/28 11:38:33;;;;;;;2.05;0.40;;;;;;;;;;5123322;28;20058;-85
2022/09/28 11:41:14;;;;;;;0.63;0.20;;;;;;;;;;5127046;28;20471;-85
2022/09/28 11:43:49;;;;;;;2.78;0.40;;;;;;;;;;5125132;28;20020;-88
2022/09/28 11:46:34;;;;;;;2.08;0.40;;;;;;;;;;5117421;28;20032;-88
2022/09/28 11:49:36;;;;;;;1.20;0.40;;;;;;;;;;5109468;28;20024;-85
2022/09/28 11:52:10;;;;;;;3.10;0.40;;;;;;;;;;5096829;28;20031;-88
2022/09/28 11:54:50;;;;;;;1.02;0.30;;;;;;;;;;5096244;28;20032;-85
2022/09/28 11:57:23;;;;;;;0.63;0.30;;;;;;;;;;5108174;28;20024;-86
2022/09/28 11:59:57;;;;;;;2.07;0.43;;;;;;;;;;5116153;28;20035;-84
2022/09/28 12:02:29;;;;;;;2.15;0.50;;;;;;;;;;5116034;28;20261;-84
2022/09/28 12:05:15;;;;;;;2.25;0.30;;;;;;;;;;5116072;28;20027;-84
2022/09/28 12:07:41;;;;;;;1.33;0.40;;;;;;;;;;5098697;28;20544;-85
2022/09/28 12:10:11;;;;;;;3.70;0.45;;;;;;;;;;5116507;28;20474;-85
2022/09/28 12:12:39;;;;;;;0.90;0.40;;;;;;;;;;5110751;28;20123;-84
2022/09/28 12:15:14;;;;;;;1.95;0.40;;;;;;;;;;5097902;28;20046;-83
2022/09/28 12:17:43;;;;;;;3.22;0.45;;;;;;;;;;5095624;28;20033;-84
2022/09/28 12:20:19;;;;;;;1.25;0.43;;;;;;;;;;5090256;28;20052;-84
2022/09/28 12:23:06;;;;;;;1.17;0.40;;;;;;;;;;5058647;28;20090;-83
2022/09/28 12:25:51;;;;;;;1.80;0.50;;;;;;;;;;5041523;28;20103;-85
2022/09/28 12:28:26;;;;;;;0.88;0.38;;;;;;;;;;5058276;28;20028;-86
2022/09/28 12:30:56;;;;;;;1.77;0.52;;;;;;;;;;5058248;28;20028;-85
2022/09/28 12:33:22;;;;;;;1.75;0.70;;;;;;;;;;5058381;28;20029;-85
2022/09/28 12:35:48;;;;;;;2.70;0.40;;;;;;;;;;5058872;28;20039;-85
2022/09/28 12:38:27;;;;;;;0.77;0.20;;;;;;;;;;5058096;28;20050;-86
2022/09/28 12:41:12;;;;;;;3.42;0.90;;;;;;;;;;5058833;28;20119;-85
2022/09/28 12:43:53;;;;;;;4.15;0.60;;;;;;;;;;5076096;28;20127;-86
2022/09/28 12:46:25;;;;;;;0.80;0.40;;;;;;;;;;5060443;28;20100;-84
2022/09/28 12:49:17;;;;;;;1.92;0.43;;;;;;;;;;5059887;28;20028;-85
2022/09/28 12:51:59;;;;;;;1.35;0.32;;;;;;;;;;5059521;28;20100;-85
2022/09/28 12:54:43;;;;;;;0.75;0.30;;;;;;;;;;5076325;28;20043;-86
2022/09/28 12:57:19;;;;;;;1.25;0.40;;;;;;;;;;5061927;28;20104;-86
2022/09/28 13:00:04;;;;;;;0.52;0.30;;;;;;;;;;5061057;28;20061;-88
2022/09/28 13:02:36;;;;;;;3.03;0.55;;;;;;;;;;5079667;28;20029;-87
2022/09/28 13:05:20;;;;;;;1.05;0.40;;;;;;;;;;5060450;28;20012;-89
2022/09/28 13:07:50;;;;;;;0.88;0.32;;;;;;;;;;5066136;28;20031;-87
2022/09/28 13:10:16;;;;;;;0.75;0.30;;;;;;;;;;5078750;28;20054;-84
2022/09/28 13:18:52;;;;;;;1.23;0.30;;;;;;;;;;5096661;28;20392;-88
2022/09/28 13:21:25;;;;;;;2.17;0.60;;;;;;;;;;5105940;28;20047;-87
2022/09/28 13:24:03;;;;;;;;;;;;;;;;;;5115594;28;20510;-84
2022/09/28 13:26:42;;;;;;;2.13;0.50;;;;;;;;;;5116724;28;20006;-87
2022/09/28 13:29:24;;;;;;;1.00;0.40;;;;;;;;;;5115492;28;20539;-86
2022/09/28 13:31:58;;;;;;;1.75;0.50;;;;;;;;;;5118855;28;20020;-85
2022/09/28 13:34:31;;;;;;;7.65;0.55;;;;;;;;;;5117150;28;20503;-88
2022/09/28 13:37:15;;;;;;;2.80;0.55;;;;;;;;;;5114618;28;20500;-86
2022/09/28 13:39:44;;;;;;;1.20;0.50;;;;;;;;;;5115653;28;20037;-92
2022/09/28 13:42:29;;;;;;;3.22;0.75;;;;;;;;;;5117419;28;20036;-87
2022/09/28 13:45:10;;;;;;;2.45;0.50;;;;;;;;;;5117817;28;20091;-89
2022/09/28 13:47:47;;;;;;;3.33;0.50;;;;;;;;;;5120308;28;20165;-85
2022/09/28 13:50:16;;;;;;;3.80;0.47;;;;;;;;;;5115671;28;20084;-85
2022/09/28 13:52:46;;;;;;;1.33;0.40;;;;;;;;;;5114741;28;20388;-86
2022/09/28 13:56:19;;;;;;;1.48;0.55;;;;;;;;;;5095177;28;20064;-95
2022/09/28 13:58:29;;;;;;;1.13;0.50;;;;;;;;;;5068327;28;20028;-92
2022/09/28 14:01:10;;;;;;;1.35;0.50;;;;;;;;;;5076767;28;20056;-93
2022/09/28 14:04:12;;;;;;;2.08;0.63;;;;;;;;;;5074978;28;20109;-92
2022/09/28 14:06:41;;;;;;;1.17;0.47;;;;;;;;;;5075184;28;20477;-91
2022/09/28 14:09:22;;;;;;;2.05;0.50;;;;;;;;;;5075079;28;20078;-92
2022/09/28 14:11:52;;;;;;;1.17;0.38;;;;;;;;;;5075909;28;20025;-92
2022/09/28 14:14:58;;;;;;;2.20;0.68;;;;;;;;;;5077680;28;20032;-90
2022/09/28 14:17:30;;;;;;;1.42;0.63;;;;;;;;;;4998475;28;20026;-88
2022/09/28 14:19:59;;;;;;;0.93;0.40;;;;;;;;;;4997160;28;20133;-91
2022/09/28 14:22:25;;;;;;;0.80;0.38;;;;;;;;;;5042740;28;20040;-91
2022/09/28 14:24:51;;;;;;;2.17;0.60;;;;;;;;;;5107886;28;20027;-81
2022/09/28 14:27:36;;;;;;;1.25;0.50;;;;;;;;;;5081357;28;20074;-78
2022/09/28 14:30:05;;;;;;;1.48;0.45;;;;;;;;;;5089909;28;20024;-76
2022/09/28 14:32:34;;;;;;;2.10;0.50;;;;;;;;;;5088683;28;20017;-77
2022/09/28 14:35:05;;;;;;;4.43;0.63;;;;;;;;;;5074030;28;20025;-77
2022/09/28 14:43:23;;;;;;;2.70;0.95;;;;;;;;;;5077782;28;20085;-78
2022/09/28 14:46:10;;;;;;;2.47;1.10;;;;;;;;;;5077095;28;20088;-82
2022/09/28 14:48:55;;;;;;;1.67;0.70;;;;;;;;;;5062075;28;20036;-80
2022/09/28 14:51:33;;;;;;;1.92;0.60;;;;;;;;;;5076666;28;20025;-79
2022/09/28 14:54:02;;;;;;;2.03;0.70;;;;;;;;;;5075269;28;20036;-81
2022/09/28 14:56:30;;;;;;;1.60;0.60;;;;;;;;;;5075217;28;20021;-81
2022/09/28 14:58:57;;;;;;;1.60;0.70;;;;;;;;;;5086203;28;20020;-77
2022/09/28 15:01:24;;;;;;;1.90;0.63;;;;;;;;;;5096620;28;20056;-79
2022/09/28 15:03:51;;;;;;;3.05;0.65;;;;;;;;;;5096671;28;20032;-79
2022/09/28 15:06:18;;;;;;;2.75;0.70;;;;;;;;;;5096501;28;20028;-77
2022/09/28 15:08:44;;;;;;;3.33;0.60;;;;;;;;;;5090432;28;20051;-77
2022/09/28 15:11:14;;;;;;;0.85;0.50;;;;;;;;;;5075054;28;20028;-79
2022/09/28 15:13:41;;;;;;;2.72;0.60;;;;;;;;;;5074782;28;20041;-76
2022/09/28 15:16:10;;;;;;;4.35;0.50;;;;;;;;;;5074917;28;20025;-76
2022/09/28 15:18:47;;;;;;;1.85;0.60;;;;;;;;;;5079296;28;20043;-76
2022/09/28 15:21:14;;;;;;;1.67;0.43;;;;;;;;;;5063684;28;20094;-77
2022/09/28 15:23:42;;;;;;;1.63;0.60;;;;;;;;;;5038411;28;20025;-78
2022/09/28 15:26:21;;;;;;;1.58;0.40;;;;;;;;;;5056100;28;20064;-77
2022/09/28 15:28:47;;;;;;;1.73;0.85;;;;;;;;;;5038301;28;20028;-80
2022/09/28 15:31:18;;;;;;;2.72;0.68;;;;;;;;;;5037951;28;20025;-78
2022/09/28 15:36:30;;;;;;;1.85;0.70;;;;;;;;;;5075893;28;20040;-75
2022/09/28 15:39:05;;;;;;;2.95;1.50;;;;;;;;;;5075788;28;20044;-77